Time;durP1;ratioP1;P1;durP2;ratioP2;P2;SDS_P1;SDS_P2;PMS_P1;PMS_P2;Temp;Humidity;BMP_temperature;BMP_pressure;BME280_temperature;BME280_humidity;BME280_pressure;Samples;Min_cycle;Max_cycle;Signal;HPM_P1;HPM_P2
2022/10/02 00:02:30;;;;;;;12.35;3.22;;;14.40;99.90;;;;;;6188674;23;20344;-80
2022/10/02 00:05:03;;;;;;;8.82;2.00;;;14.40;99.90;;;;;;6216568;23;20021;-81
2022/10/02 00:07:41;;;;;;;12.85;2.42;;;14.40;99.90;;;;;;6189794;23;20100;-80
2022/10/02 00:10:20;;;;;;;14.50;2.35;;;14.40;99.90;;;;;;6190548;23;20027;-80
2022/10/02 00:12:50;;;;;;;13.35;3.17;;;14.40;99.90;;;;;;6215067;23;20523;-81
2022/10/02 00:15:21;;;;;;;13.23;2.85;;;14.40;99.90;;;;;;6147076;22;21685;-79
2022/10/02 00:17:50;;;;;;;11.02;2.70;;;14.40;99.90;;;;;;6244307;22;20023;-78
2022/10/02 00:20:22;;;;;;;10.60;2.95;;;14.40;99.90;;;;;;6219532;22;20028;-79
2022/10/02 00:23:19;;;;;;;11.43;3.25;;;14.30;99.90;;;;;;6243524;22;20122;-79
2022/10/02 00:26:15;;;;;;;13.63;4.05;;;14.30;99.90;;;;;;6152567;22;20055;-79
2022/10/02 00:29:04;;;;;;;9.70;2.60;;;14.30;99.90;;;;;;6243255;22;20073;-79
2022/10/02 00:31:54;;;;;;;10.80;2.45;;;14.20;99.90;;;;;;6202879;22;20081;-79
2022/10/02 00:34:22;;;;;;;8.77;2.50;;;14.20;99.90;;;;;;6219909;22;20019;-79
2022/10/02 00:37:10;;;;;;;7.75;2.78;;;14.20;99.90;;;;;;6220807;22;20024;-79
2022/10/02 00:39:57;;;;;;;12.40;2.53;;;14.20;99.90;;;;;;6218304;22;20020;-78
2022/10/02 00:42:47;;;;;;;13.57;3.33;;;14.10;99.90;;;;;;6220404;22;20016;-78
2022/10/02 00:45:28;;;;;;;11.95;2.88;;;14.10;99.90;;;;;;6219907;22;20016;-78
2022/10/02 00:48:13;;;;;;;13.73;2.95;;;14.10;99.90;;;;;;6245862;22;20023;-79
2022/10/02 00:51:05;;;;;;;10.38;2.40;;;14.10;99.90;;;;;;6246153;22;20061;-78
2022/10/02 00:54:02;;;;;;;12.00;2.63;;;14.10;99.90;;;;;;6220595;22;20265;-80
2022/10/02 00:56:43;;;;;;;11.77;2.67;;;14.10;99.90;;;;;;6221154;22;20019;-79
2022/10/02 00:59:17;;;;;;;11.57;2.50;;;14.10;99.90;;;;;;6246074;22;20016;-78
2022/10/02 01:02:12;;;;;;;11.07;2.58;;;14.10;99.90;;;;;;6246407;22;20506;-79
2022/10/02 01:04:39;;;;;;;13.10;3.13;;;14.10;99.90;;;;;;6221338;22;20037;-79
2022/10/02 01:07:09;;;;;;;12.20;2.47;;;14.10;99.90;;;;;;6226977;22;20020;-79
2022/10/02 01:09:36;;;;;;;12.10;2.30;;;14.10;99.90;;;;;;6254287;22;20193;-79
2022/10/02 01:12:02;;;;;;;11.18;2.83;;;14.10;99.90;;;;;;6248007;22;20332;-79
2022/10/02 01:14:33;;;;;;;10.45;2.30;;;14.10;99.90;;;;;;6219310;22;20018;-78
2022/10/02 01:16:59;;;;;;;12.80;2.40;;;14.10;99.90;;;;;;6239771;22;20031;-78
2022/10/02 01:19:36;;;;;;;11.02;2.47;;;14.10;99.90;;;;;;6269288;22;20118;-78
2022/10/02 01:22:24;;;;;;;12.20;2.22;;;14.10;99.90;;;;;;6272618;22;20012;-79
2022/10/02 01:24:57;;;;;;;14.13;2.60;;;14.10;99.90;;;;;;6245335;22;20022;-78
2022/10/02 01:27:25;;;;;;;9.40;2.05;;;14.10;99.90;;;;;;6245747;22;20098;-79
2022/10/02 01:29:55;;;;;;;14.40;3.08;;;14.10;99.90;;;;;;6244575;22;20030;-80
2022/10/02 01:32:25;;;;;;;15.13;2.80;;;14.10;99.90;;;;;;6245291;22;20020;-78
2022/10/02 01:34:56;;;;;;;11.07;2.90;;;14.10;99.90;;;;;;6220129;22;20016;-78
2022/10/02 01:37:25;;;;;;;11.85;2.47;;;14.10;99.90;;;;;;6269495;22;20165;-79
2022/10/02 01:39:51;;;;;;;14.23;2.92;;;14.20;99.90;;;;;;6245475;22;20016;-78
2022/10/02 01:42:19;;;;;;;10.90;2.00;;;14.10;99.90;;;;;;6270624;22;20020;-78
2022/10/02 01:44:47;;;;;;;11.15;1.98;;;14.20;99.90;;;;;;6245445;22;20553;-79
2022/10/02 01:47:44;;;;;;;9.60;2.22;;;14.20;99.90;;;;;;6196065;22;20457;-79
2022/10/02 01:50:09;;;;;;;;;;;14.30;99.90;;;;;;6270235;22;20049;-79
2022/10/02 01:52:50;;;;;;;12.87;2.00;;;14.30;99.90;;;;;;6271456;22;19919;-80
2022/10/02 01:55:24;;;;;;;12.18;2.60;;;14.30;99.90;;;;;;6244063;22;20055;-80
2022/10/02 01:58:28;;;;;;;15.00;2.70;;;14.30;99.90;;;;;;6270218;22;20020;-79
2022/10/02 02:01:17;;;;;;;10.93;2.55;;;14.30;99.90;;;;;;6243310;22;20395;-79
2022/10/02 02:03:53;;;;;;;10.90;2.40;;;14.30;99.90;;;;;;6244422;22;20023;-80
2022/10/02 02:06:31;;;;;;;12.00;2.63;;;14.30;99.90;;;;;;6243993;22;20452;-79
2022/10/02 02:09:09;;;;;;;10.02;1.90;;;14.20;99.90;;;;;;6244908;22;20062;-80
2022/10/02 02:11:41;;;;;;;8.32;2.20;;;14.20;99.90;;;;;;6270554;22;20039;-79
2022/10/02 02:14:16;;;;;;;10.82;2.20;;;14.20;99.90;;;;;;6246107;22;20020;-79
2022/10/02 02:16:59;;;;;;;8.87;2.10;;;14.20;99.90;;;;;;6270047;22;20293;-79
2022/10/02 02:19:37;;;;;;;11.82;2.08;;;14.20;99.90;;;;;;6270906;22;20242;-79
2022/10/02 02:22:25;;;;;;;9.13;2.28;;;14.10;99.90;;;;;;6245705;22;20051;-80
2022/10/02 02:25:02;;;;;;;13.10;2.33;;;14.20;99.90;;;;;;6244660;22;20097;-80
2022/10/02 02:27:34;;;;;;;10.45;2.50;;;14.20;99.90;;;;;;6243336;22;20047;-80
2022/10/02 02:30:05;;;;;;;12.65;2.72;;;14.20;99.90;;;;;;6245380;22;20043;-79
2022/10/02 02:32:35;;;;;;;9.95;2.33;;;14.20;99.90;;;;;;6244906;22;20068;-80
2022/10/02 02:35:10;;;;;;;14.82;2.13;;;14.20;99.90;;;;;;6245206;22;20046;-80
2022/10/02 02:37:39;;;;;;;14.55;3.38;;;14.20;99.90;;;;;;6243795;22;20102;-80
2022/10/02 02:40:11;;;;;;;13.27;2.40;;;14.20;99.90;;;;;;6244642;22;20058;-80
2022/10/02 02:42:41;;;;;;;11.32;2.28;;;14.20;99.90;;;;;;6244622;22;20011;-79
2022/10/02 02:45:21;;;;;;;16.15;2.70;;;14.20;99.90;;;;;;6270444;22;20007;-80
2022/10/02 02:47:51;;;;;;;13.43;2.25;;;14.20;99.90;;;;;;6244011;22;20019;-80
2022/10/02 02:50:20;;;;;;;9.93;2.15;;;14.20;99.90;;;;;;6270647;22;20020;-80
2022/10/02 02:53:03;;;;;;;13.07;2.58;;;14.20;99.90;;;;;;6269670;22;20023;-80
2022/10/02 02:55:57;;;;;;;10.52;3.05;;;14.10;99.90;;;;;;6269302;22;20024;-79
2022/10/02 02:58:51;;;;;;;14.30;2.35;;;14.10;99.90;;;;;;6269646;22;20027;-79
2022/10/02 03:01:17;;;;;;;13.43;2.45;;;14.10;99.90;;;;;;6270063;22;20081;-79
2022/10/02 03:03:43;;;;;;;11.40;1.90;;;14.10;99.90;;;;;;6244170;22;20020;-79
2022/10/02 03:06:14;;;;;;;14.65;3.10;;;14.10;99.90;;;;;;6245024;22;20020;-80
2022/10/02 03:08:41;;;;;;;16.05;2.45;;;14.10;99.90;;;;;;6243887;22;20465;-80
2022/10/02 03:11:28;;;;;;;13.02;3.08;;;14.00;99.90;;;;;;6244814;22;20070;-79
2022/10/02 03:14:11;;;;;;;16.85;3.25;;;14.00;99.90;;;;;;6269962;22;20308;-80
2022/10/02 03:16:43;;;;;;;14.05;3.08;;;14.00;99.90;;;;;;6254650;22;20042;-79
2022/10/02 03:19:27;;;;;;;10.73;2.72;;;14.00;99.90;;;;;;6219086;22;20107;-79
2022/10/02 03:22:24;;;;;;;13.73;2.67;;;13.90;99.90;;;;;;6244713;22;20016;-79
2022/10/02 03:25:09;;;;;;;11.43;2.45;;;13.90;99.90;;;;;;6217350;22;20023;-79
2022/10/02 03:27:43;;;;;;;13.55;2.53;;;13.90;99.90;;;;;;6218161;22;20027;-79
2022/10/02 03:30:12;;;;;;;10.80;2.22;;;13.80;99.90;;;;;;6219680;22;20012;-79
2022/10/02 03:32:40;;;;;;;8.63;2.20;;;13.80;99.90;;;;;;6244038;22;20091;-80
2022/10/02 03:35:10;;;;;;;9.30;2.47;;;13.80;99.90;;;;;;6243146;22;20474;-80
2022/10/02 03:37:37;;;;;;;14.27;2.55;;;13.80;99.90;;;;;;6242859;22;20016;-80
2022/10/02 03:40:05;;;;;;;10.27;2.55;;;13.80;99.90;;;;;;6245101;22;20016;-79
2022/10/02 03:42:33;;;;;;;12.60;3.20;;;13.70;99.90;;;;;;6244073;22;20493;-79
2022/10/02 03:44:59;;;;;;;12.63;2.00;;;13.70;99.90;;;;;;6219636;22;20031;-80
2022/10/02 03:47:25;;;;;;;13.60;2.38;;;13.70;99.90;;;;;;6243633;22;20022;-79
2022/10/02 03:49:51;;;;;;;8.93;2.20;;;13.70;99.90;;;;;;6244392;22;20043;-80
2022/10/02 03:52:22;;;;;;;14.95;3.33;;;13.70;99.90;;;;;;6219259;22;20031;-79
2022/10/02 03:54:56;;;;;;;12.90;2.83;;;13.70;99.90;;;;;;6218526;22;20023;-80
2022/10/02 03:57:24;;;;;;;9.00;1.88;;;13.70;99.90;;;;;;6243244;22;20026;-80
2022/10/02 03:59:58;;;;;;;11.13;2.05;;;13.60;99.90;;;;;;6193904;22;20343;-80
2022/10/02 04:02:42;;;;;;;10.63;2.38;;;13.60;99.90;;;;;;6244645;22;20015;-79
2022/10/02 04:05:40;;;;;;;13.38;2.28;;;13.60;99.90;;;;;;6244565;22;20081;-79
2022/10/02 04:08:16;;;;;;;14.02;2.65;;;13.60;99.90;;;;;;6219074;22;20386;-80
2022/10/02 04:10:54;;;;;;;10.00;2.58;;;13.50;99.90;;;;;;6219163;22;20016;-80
2022/10/02 04:13:33;;;;;;;11.18;2.60;;;12.90;99.90;;;;;;6220492;22;20062;-79
2022/10/02 04:16:32;;;;;;;13.90;2.20;;;13.50;99.90;;;;;;6246972;22;20051;-79
2022/10/02 04:19:09;;;;;;;11.20;2.22;;;13.50;99.90;;;;;;6224308;22;20426;-80
2022/10/02 04:21:44;;;;;;;11.10;2.40;;;13.50;99.90;;;;;;6270224;22;20047;-80
2022/10/02 04:24:35;;;;;;;8.18;2.08;;;13.50;99.90;;;;;;6244585;22;20012;-80
2022/10/02 04:27:23;;;;;;;21.60;2.85;;;13.60;99.90;;;;;;6266556;22;20110;-79
2022/10/02 04:29:54;;;;;;;10.40;2.42;;;13.60;99.90;;;;;;6245091;22;20097;-79
2022/10/02 04:32:24;;;;;;;13.30;2.17;;;13.60;99.90;;;;;;6246215;22;20102;-80
2022/10/02 04:34:51;;;;;;;13.52;2.83;;;13.60;99.90;;;;;;6270973;22;20019;-79
2022/10/02 04:37:54;;;;;;;11.20;2.33;;;13.50;99.90;;;;;;6245443;22;20054;-79
2022/10/02 04:40:49;;;;;;;14.55;2.42;;;13.60;99.90;;;;;;6244961;22;20027;-78
2022/10/02 04:43:52;;;;;;;13.90;2.80;;;13.50;99.90;;;;;;6257439;22;20038;-78
2022/10/02 04:46:39;;;;;;;13.88;2.13;;;13.50;99.90;;;;;;6254137;22;20030;-78
2022/10/02 04:49:24;;;;;;;15.93;2.95;;;13.50;99.90;;;;;;6245367;22;20023;-78
2022/10/02 04:51:58;;;;;;;11.40;2.05;;;13.50;99.90;;;;;;6269496;22;20016;-78
2022/10/02 04:55:12;;;;;;;16.23;2.80;;;13.50;99.90;;;;;;6270250;22;20102;-78
2022/10/02 04:57:58;;;;;;;10.57;2.45;;;13.50;99.90;;;;;;6235754;22;20027;-78
2022/10/02 05:00:25;;;;;;;;;;;13.50;99.90;;;;;;6271017;22;20020;-79
2022/10/02 05:03:33;;;;;;;12.40;3.08;;;13.50;99.90;;;;;;6246279;22;20293;-78
2022/10/02 05:05:58;;;;;;;;;;;13.50;99.90;;;;;;6244236;22;20405;-78
2022/10/02 05:08:33;;;;;;;14.10;2.77;;;13.40;99.90;;;;;;6270406;22;19923;-81
2022/10/02 05:11:51;;;;;;;13.90;2.65;;;13.50;99.90;;;;;;6244995;22;20024;-81
2022/10/02 05:14:54;;;;;;;12.35;2.22;;;13.50;99.90;;;;;;6233819;22;20022;-81
2022/10/02 05:17:34;;;;;;;11.07;2.20;;;13.50;99.90;;;;;;6244153;22;20016;-81
2022/10/02 05:20:31;;;;;;;14.23;2.42;;;13.50;99.90;;;;;;6244724;22;20116;-80
2022/10/02 05:23:03;;;;;;;12.00;2.33;;;13.50;99.90;;;;;;6243695;22;20084;-80
2022/10/02 05:25:44;;;;;;;15.70;2.50;;;13.50;99.90;;;;;;6271045;22;20023;-79
2022/10/02 05:28:42;;;;;;;9.75;2.22;;;13.50;99.90;;;;;;6244165;22;20019;-82
2022/10/02 05:31:38;;;;;;;9.57;2.35;;;13.60;99.90;;;;;;6246384;22;20027;-81
2022/10/02 05:34:37;;;;;;;13.63;2.22;;;13.60;99.90;;;;;;6271337;22;20019;-80
2022/10/02 05:37:11;;;;;;;12.45;2.42;;;13.60;99.90;;;;;;6270343;22;20537;-77
2022/10/02 05:40:16;;;;;;;10.70;2.30;;;13.70;99.90;;;;;;6245357;22;20027;-81
2022/10/02 05:42:53;;;;;;;11.68;2.85;;;13.70;99.90;;;;;;6239867;22;20038;-81
2022/10/02 05:45:38;;;;;;;12.82;2.85;;;13.70;99.90;;;;;;6270433;22;20019;-80
2022/10/02 05:48:12;;;;;;;14.43;2.40;;;13.70;99.90;;;;;;6243214;22;20359;-81
2022/10/02 05:50:40;;;;;;;11.73;2.50;;;13.70;99.90;;;;;;6247042;22;20056;-79
2022/10/02 05:53:27;;;;;;;11.18;3.17;;;13.80;99.90;;;;;;6269531;22;20016;-79
2022/10/02 05:56:03;;;;;;;10.48;2.17;;;13.80;99.90;;;;;;6246764;22;20023;-80
2022/10/02 05:58:40;;;;;;;7.38;2.05;;;13.80;99.90;;;;;;6246840;22;20051;-81
2022/10/02 06:01:32;;;;;;;10.55;2.08;;;13.80;99.90;;;;;;6244893;22;20051;-80
2022/10/02 06:04:13;;;;;;;11.32;2.45;;;13.80;99.90;;;;;;6233088;22;20028;-79
2022/10/02 06:06:45;;;;;;;11.48;2.55;;;13.80;99.90;;;;;;6272166;22;20026;-78
2022/10/02 06:09:28;;;;;;;12.50;2.72;;;13.80;99.90;;;;;;6271077;22;20016;-80
2022/10/02 06:11:59;;;;;;;15.23;2.83;;;13.80;99.90;;;;;;6244270;22;20030;-80
2022/10/02 06:14:39;;;;;;;17.80;3.53;;;13.70;99.90;;;;;;6247034;22;20024;-80
2022/10/02 06:17:14;;;;;;;13.15;2.28;;;13.60;99.90;;;;;;6271374;22;20023;-80
2022/10/02 06:19:58;;;;;;;16.45;2.83;;;13.50;99.90;;;;;;6247269;22;20051;-80
2022/10/02 06:22:32;;;;;;;17.15;2.90;;;13.40;99.90;;;;;;6243718;22;20023;-82
2022/10/02 06:25:12;;;;;;;13.85;2.65;;;13.40;99.90;;;;;;6245585;22;20081;-80
2022/10/02 06:28:04;;;;;;;16.20;3.05;;;13.40;99.90;;;;;;6244365;22;20026;-80
2022/10/02 06:30:34;;;;;;;12.38;2.30;;;13.30;99.90;;;;;;6272753;22;20019;-79
2022/10/02 06:33:19;;;;;;;12.40;2.22;;;13.30;99.90;;;;;;6244667;22;20015;-81
2022/10/02 06:35:54;;;;;;;9.02;2.60;;;13.40;99.90;;;;;;6269539;22;20051;-83
2022/10/02 06:38:41;;;;;;;12.95;2.42;;;13.50;99.90;;;;;;6245277;22;20023;-82
2022/10/02 06:41:19;;;;;;;11.63;2.95;;;13.60;99.90;;;;;;6245236;22;20069;-78
2022/10/02 06:43:55;;;;;;;9.13;2.38;;;13.60;99.90;;;;;;6271125;22;20016;-79
2022/10/02 06:46:25;;;;;;;;;;;13.70;99.90;;;;;;6272167;22;20058;-79
2022/10/02 06:49:10;;;;;;;11.65;2.42;;;13.80;99.90;;;;;;6244277;22;20322;-79
2022/10/02 06:52:06;;;;;;;9.98;2.40;;;13.80;99.90;;;;;;6243343;22;20038;-80
2022/10/02 06:55:02;;;;;;;13.65;2.55;;;13.80;99.90;;;;;;6246122;22;20106;-79
2022/10/02 06:57:51;;;;;;;8.50;2.33;;;13.70;99.90;;;;;;6245412;22;20066;-79
2022/10/02 07:00:20;;;;;;;11.00;3.15;;;13.70;99.90;;;;;;6247472;22;20031;-80
2022/10/02 07:03:08;;;;;;;15.07;2.90;;;13.70;99.90;;;;;;6272891;22;20016;-79
2022/10/02 07:06:12;;;;;;;13.02;2.40;;;13.70;99.90;;;;;;6245849;22;20012;-80
2022/10/02 07:08:50;;;;;;;12.63;2.53;;;13.70;99.90;;;;;;6246072;22;20019;-79
2022/10/02 07:11:46;;;;;;;7.93;2.10;;;13.70;99.90;;;;;;6269474;22;20330;-78
2022/10/02 07:14:53;;;;;;;9.93;2.27;;;13.70;99.90;;;;;;6227042;22;20378;-77
2022/10/02 07:18:02;;;;;;;8.77;2.00;;;13.80;99.90;;;;;;6253756;22;20039;-78
2022/10/02 07:20:34;;;;;;;9.32;2.03;;;13.80;99.90;;;;;;6243744;22;20020;-79
2022/10/02 07:23:42;;;;;;;11.82;2.33;;;13.80;99.90;;;;;;6269883;22;20062;-79
2022/10/02 07:26:26;;;;;;;8.13;1.75;;;13.80;99.90;;;;;;6181228;23;20256;-79
2022/10/02 07:29:21;;;;;;;14.38;2.25;;;13.90;99.90;;;;;;6265615;22;20070;-78
2022/10/02 07:31:56;;;;;;;13.93;2.78;;;13.90;99.90;;;;;;6244134;22;20062;-80
2022/10/02 07:35:07;;;;;;;9.73;2.45;;;14.00;99.90;;;;;;6243837;22;20047;-79
2022/10/02 07:37:48;;;;;;;12.30;2.25;;;14.10;99.90;;;;;;6246549;22;20024;-80
2022/10/02 07:40:29;;;;;;;10.02;2.55;;;14.10;99.90;;;;;;6271507;22;20042;-79
2022/10/02 07:43:39;;;;;;;11.68;2.97;;;14.20;99.90;;;;;;6245674;22;20853;-78
2022/10/02 07:46:20;;;;;;;13.45;2.40;;;14.30;99.90;;;;;;6247384;22;20018;-80
2022/10/02 07:48:54;;;;;;;10.95;2.60;;;14.40;99.90;;;;;;6246844;22;20027;-81
2022/10/02 07:51:46;;;;;;;12.60;2.40;;;14.60;99.90;;;;;;6245981;22;20073;-79
2022/10/02 07:54:27;;;;;;;11.52;2.95;;;14.70;99.90;;;;;;6245904;22;20019;-78
2022/10/02 07:56:57;;;;;;;12.70;2.55;;;14.70;99.90;;;;;;6244287;22;20099;-79
2022/10/02 07:59:23;;;;;;;11.85;2.85;;;14.70;99.90;;;;;;6244121;22;20024;-79
2022/10/02 08:01:50;;;;;;;13.82;2.55;;;14.70;99.90;;;;;;6268878;22;20008;-79
2022/10/02 08:04:31;;;;;;;10.90;2.50;;;14.90;99.90;;;;;;6217663;22;20027;-80
2022/10/02 08:07:02;;;;;;;14.65;3.15;;;15.00;99.90;;;;;;6246827;22;20016;-80
2022/10/02 08:09:38;;;;;;;11.32;2.95;;;15.10;99.90;;;;;;6222849;22;20393;-79
2022/10/02 08:12:29;;;;;;;13.50;2.60;;;15.20;99.90;;;;;;6271796;22;20019;-80
2022/10/02 08:14:57;;;;;;;7.45;2.65;;;15.40;99.90;;;;;;6246412;22;20020;-83
2022/10/02 08:17:52;;;;;;;12.82;2.35;;;15.50;99.90;;;;;;6271343;22;20085;-80
2022/10/02 08:20:35;;;;;;;18.02;2.92;;;15.70;99.90;;;;;;6237662;22;20050;-80
2022/10/02 08:23:27;;;;;;;12.93;2.58;;;15.90;99.90;;;;;;6246615;22;20051;-82
2022/10/02 08:26:10;;;;;;;12.82;2.17;;;16.00;99.90;;;;;;6271792;22;20095;-81
2022/10/02 08:28:56;;;;;;;10.52;3.65;;;16.10;99.90;;;;;;6270438;22;20390;-82
2022/10/02 08:31:22;;;;;;;11.27;2.30;;;16.30;99.90;;;;;;6245642;22;20012;-80
2022/10/02 08:33:50;;;;;;;9.73;2.28;;;16.40;99.90;;;;;;6244166;22;20016;-83
2022/10/02 08:36:23;;;;;;;10.48;3.10;;;16.50;99.90;;;;;;6242821;22;20474;-79
2022/10/02 08:39:14;;;;;;;10.20;2.53;;;16.70;99.90;;;;;;6269211;22;20347;-79
2022/10/02 08:42:18;;;;;;;9.65;2.50;;;16.80;99.90;;;;;;6271133;22;20091;-79
2022/10/02 08:45:10;;;;;;;11.07;2.55;;;16.90;99.90;;;;;;6271000;22;20023;-80
2022/10/02 08:48:19;;;;;;;12.77;2.28;;;17.00;99.90;;;;;;6237556;22;20024;-80
2022/10/02 08:51:02;;;;;;;12.15;2.50;;;17.10;99.90;;;;;;6160283;23;20020;-79
2022/10/02 08:53:53;;;;;;;12.90;2.45;;;17.10;99.90;;;;;;6159849;23;20025;-79
2022/10/02 08:56:46;;;;;;;10.35;2.20;;;17.10;99.90;;;;;;6249010;22;20020;-80
2022/10/02 08:59:31;;;;;;;8.43;1.95;;;17.00;99.90;;;;;;6246274;22;20284;-80
2022/10/02 09:02:26;;;;;;;9.60;2.40;;;16.90;99.90;;;;;;6272269;22;20051;-80
2022/10/02 09:05:16;;;;;;;7.93;2.00;;;16.80;99.90;;;;;;6246775;22;20022;-79
2022/10/02 09:07:57;;;;;;;10.77;2.58;;;16.70;99.90;;;;;;6245269;22;20020;-79
2022/10/02 09:10:57;;;;;;;8.23;2.97;;;16.70;99.90;;;;;;6270844;22;20694;-80
2022/10/02 09:13:54;;;;;;;8.88;1.90;;;16.70;99.90;;;;;;6245759;22;20019;-80
2022/10/02 09:16:38;;;;;;;9.00;2.13;;;16.70;99.90;;;;;;6244819;22;20399;-80
2022/10/02 09:19:09;;;;;;;9.07;1.92;;;16.70;99.90;;;;;;6271687;22;20136;-80
2022/10/02 09:22:04;;;;;;;9.57;2.30;;;16.70;99.90;;;;;;6246705;22;20027;-80
2022/10/02 09:24:51;;;;;;;7.15;2.15;;;16.70;99.90;;;;;;6245872;22;20023;-80
2022/10/02 09:27:19;;;;;;;7.55;2.00;;;16.70;99.90;;;;;;6245261;22;20535;-79
2022/10/02 09:30:17;;;;;;;7.88;2.53;;;16.80;99.90;;;;;;6272279;22;20069;-80
2022/10/02 09:33:08;;;;;;;8.57;2.20;;;17.00;99.90;;;;;;6272239;22;20023;-80
2022/10/02 09:36:23;;;;;;;9.98;2.03;;;17.30;99.90;;;;;;6272154;22;20027;-79
2022/10/02 09:39:08;;;;;;;10.85;2.22;;;17.80;99.90;;;;;;6184412;23;20096;-80
2022/10/02 09:42:07;;;;;;;13.20;2.90;;;17.90;99.90;;;;;;6183927;23;20129;-80
2022/10/02 09:44:59;;;;;;;7.75;2.55;;;18.00;99.90;;;;;;6239650;22;20038;-80
2022/10/02 09:48:00;;;;;;;11.13;2.33;;;18.00;99.90;;;;;;6232454;22;20019;-80
2022/10/02 09:50:46;;;;;;;9.55;2.50;;;18.10;99.90;;;;;;6271655;22;20327;-79
2022/10/02 09:53:36;;;;;;;13.07;2.25;;;18.00;99.90;;;;;;6244620;22;20069;-80
2022/10/02 09:56:44;;;;;;;10.63;2.53;;;17.80;99.90;;;;;;6246812;22;20022;-80
2022/10/02 09:59:49;;;;;;;14.45;2.83;;;17.70;99.90;;;;;;6245974;22;20031;-79
2022/10/02 10:02:38;;;;;;;12.00;2.88;;;17.50;99.90;;;;;;6270446;22;20019;-79
2022/10/02 10:05:49;;;;;;;10.70;2.33;;;17.50;99.90;;;;;;6246293;22;20102;-80
2022/10/02 10:08:42;;;;;;;12.48;2.53;;;17.30;99.90;;;;;;6223164;22;20062;-79
2022/10/02 10:11:30;;;;;;;12.68;2.20;;;17.30;99.90;;;;;;6246653;22;20074;-81
2022/10/02 10:13:59;;;;;;;9.52;2.10;;;17.20;99.90;;;;;;6245508;22;20024;-81
2022/10/02 10:16:55;;;;;;;12.00;2.83;;;17.10;99.90;;;;;;6270210;22;20095;-79
2022/10/02 10:19:58;;;;;;;10.18;2.70;;;17.10;99.90;;;;;;6245213;22;20024;-79
2022/10/02 10:23:08;;;;;;;12.30;2.63;;;17.20;99.90;;;;;;6269942;22;20094;-79
2022/10/02 10:25:49;;;;;;;10.48;2.53;;;17.10;99.90;;;;;;6270712;22;20398;-80
2022/10/02 10:28:52;;;;;;;8.25;2.40;;;17.00;99.90;;;;;;6244704;22;20027;-80
2022/10/02 10:31:36;;;;;;;8.73;2.08;;;17.00;99.90;;;;;;6245164;22;20020;-79
2022/10/02 10:34:44;;;;;;;12.55;2.80;;;17.10;99.90;;;;;;6271708;22;20350;-79
2022/10/02 10:40:35;;;;;;;8.77;2.33;;;17.20;99.90;;;;;;6271179;22;20038;-80
2022/10/02 10:43:03;;;;;;;8.00;2.10;;;17.20;99.90;;;;;;6245844;22;20019;-80
2022/10/02 10:46:02;;;;;;;9.70;2.33;;;17.20;99.90;;;;;;6270176;22;20012;-80
2022/10/02 10:48:58;;;;;;;8.88;2.28;;;17.40;99.90;;;;;;6271048;22;20316;-80
2022/10/02 10:51:34;;;;;;;10.88;2.10;;;17.60;99.90;;;;;;6244829;22;20024;-80
2022/10/02 10:54:21;;;;;;;13.50;2.78;;;17.80;99.90;;;;;;6271341;22;20011;-80
2022/10/02 10:56:58;;;;;;;7.43;2.00;;;17.90;99.90;;;;;;6270580;22;20027;-80
2022/10/02 10:59:41;;;;;;;9.02;2.35;;;18.10;99.90;;;;;;6244439;22;20055;-80
2022/10/02 11:02:42;;;;;;;12.38;2.55;;;18.60;99.90;;;;;;6245579;22;20022;-80
2022/10/02 11:05:21;;;;;;;10.00;2.00;;;18.90;99.90;;;;;;6270446;22;20074;-80
2022/10/02 11:07:58;;;;;;;9.82;2.28;;;18.80;99.90;;;;;;6244799;22;20081;-80
2022/10/02 11:10:51;;;;;;;7.45;2.08;;;18.40;99.90;;;;;;6270017;22;20049;-80
2022/10/02 11:13:46;;;;;;;12.02;2.47;;;18.20;99.90;;;;;;6270197;22;20022;-80
2022/10/02 11:16:30;;;;;;;7.63;2.25;;;18.40;99.90;;;;;;6244804;22;20024;-80
2022/10/02 11:19:01;;;;;;;11.88;2.42;;;18.60;99.90;;;;;;6245088;22;20073;-80
2022/10/02 11:21:50;;;;;;;10.05;2.55;;;18.60;99.90;;;;;;6219784;22;20046;-80
2022/10/02 11:24:49;;;;;;;8.68;2.22;;;18.30;99.90;;;;;;6244608;22;20390;-80
2022/10/02 11:27:29;;;;;;;12.65;2.38;;;18.60;99.90;;;;;;6219101;22;20023;-80
2022/10/02 11:30:04;;;;;;;8.40;2.60;;;19.50;99.90;;;;;;6245188;22;20016;-80
2022/10/02 11:33:03;;;;;;;13.13;2.60;;;20.40;99.90;;;;;;6218925;22;20016;-81
2022/10/02 11:35:54;;;;;;;10.98;2.55;;;21.30;99.90;;;;;;6218787;22;20019;-80
2022/10/02 11:39:04;;;;;;;10.25;2.17;;;22.10;99.90;;;;;;6243748;22;20031;-80
2022/10/02 11:41:38;;;;;;;10.15;2.28;;;22.70;99.90;;;;;;6246799;22;20020;-80
2022/10/02 11:44:15;;;;;;;8.35;2.30;;;23.20;99.90;;;;;;6247514;22;20019;-80
2022/10/02 11:46:51;;;;;;;8.13;2.08;;;24.10;99.90;;;;;;6221720;22;20442;-80
2022/10/02 11:49:35;;;;;;;13.80;2.92;;;24.00;99.90;;;;;;6222937;22;20027;-80
2022/10/02 11:52:24;;;;;;;10.38;2.00;;;24.70;99.50;;;;;;6248476;22;20020;-80
2022/10/02 11:54:56;;;;;;;8.90;2.10;;;25.20;98.30;;;;;;6260229;22;20055;-80
2022/10/02 11:57:53;;;;;;;8.32;2.10;;;25.30;97.10;;;;;;6224442;22;20015;-80
2022/10/02 12:00:38;;;;;;;9.98;1.98;;;25.20;95.60;;;;;;6254352;22;20098;-80
2022/10/02 12:03:54;;;;;;;7.20;1.70;;;25.30;95.40;;;;;;6221478;22;20023;-81
2022/10/02 12:06:34;;;;;;;8.68;2.42;;;25.60;96.00;;;;;;6098135;23;20013;-80
2022/10/02 12:09:25;;;;;;;7.88;2.08;;;26.10;95.40;;;;;;6204495;22;20023;-83
2022/10/02 12:12:50;;;;;;;9.88;2.10;;;26.20;94.10;;;;;;6219281;22;20019;-81
2022/10/02 12:15:27;;;;;;;9.82;2.00;;;26.40;94.80;;;;;;6240271;22;20027;-80
2022/10/02 12:18:21;;;;;;;10.07;2.30;;;26.50;94.20;;;;;;6231711;22;20030;-81
2022/10/02 12:27:28;;;;;;;7.78;1.88;;;26.00;92.40;;;;;;6267864;22;20463;-80
2022/10/02 12:30:03;;;;;;;8.18;2.00;;;26.10;92.90;;;;;;6245971;22;20063;-80
2022/10/02 12:32:36;;;;;;;;;;;25.80;92.40;;;;;;6244206;22;20094;-81
2022/10/02 12:35:30;;;;;;;7.00;1.80;;;25.50;91.10;;;;;;6246618;22;19919;-81
2022/10/02 12:38:11;;;;;;;7.50;1.90;;;25.40;91.70;;;;;;6273230;22;20065;-81
2022/10/02 12:40:55;;;;;;;9.25;1.90;;;25.40;92.30;;;;;;6271451;22;20343;-80
2022/10/02 12:43:39;;;;;;;5.70;1.75;;;25.40;92.20;;;;;;6272046;22;20016;-81
2022/10/02 12:46:30;;;;;;;6.78;1.80;;;25.60;92.00;;;;;;6246303;22;20429;-80
2022/10/02 12:49:11;;;;;;;7.50;2.13;;;25.40;92.10;;;;;;6272125;22;20026;-81
2022/10/02 12:51:58;;;;;;;7.65;1.55;;;25.40;92.40;;;;;;6245325;22;20051;-80
2022/10/02 12:55:38;;;;;;;6.55;1.75;;;25.30;91.30;;;;;;6243439;22;20055;-80
2022/10/02 12:58:39;;;;;;;6.53;1.98;;;25.10;91.90;;;;;;6071370;23;20032;-80
2022/10/02 13:01:16;;;;;;;7.47;1.92;;;25.20;92.80;;;;;;6143929;23;20025;-81
2022/10/02 13:04:00;;;;;;;5.10;1.55;;;25.30;92.90;;;;;;6240290;22;20473;-80
2022/10/02 13:07:01;;;;;;;9.05;1.83;;;25.20;92.90;;;;;;6267122;22;20429;-80
2022/10/02 13:09:33;;;;;;;9.85;2.10;;;24.90;92.90;;;;;;6267761;22;20019;-80
2022/10/02 13:12:18;;;;;;;6.35;2.03;;;24.50;92.90;;;;;;6267905;22;20015;-80
2022/10/02 13:15:18;;;;;;;8.05;2.28;;;24.50;93.60;;;;;;6241678;22;20372;-81
2022/10/02 13:17:56;;;;;;;5.40;1.52;;;24.70;93.20;;;;;;6266595;22;20023;-81
2022/10/02 13:20:27;;;;;;;7.90;1.80;;;24.80;93.80;;;;;;6268073;22;20078;-80
2022/10/02 13:22:53;;;;;;;7.68;1.83;;;24.90;93.40;;;;;;6243336;22;20016;-81
2022/10/02 13:25:57;;;;;;;6.45;1.90;;;24.70;93.70;;;;;;6242425;22;20018;-80
2022/10/02 13:28:32;;;;;;;6.97;2.03;;;24.90;93.40;;;;;;6242747;22;20019;-81
2022/10/02 13:31:03;;;;;;;5.60;1.70;;;24.80;92.70;;;;;;6242900;22;20396;-81
2022/10/02 13:33:47;;;;;;;7.50;1.90;;;24.50;93.00;;;;;;6268580;22;20026;-79
2022/10/02 13:36:50;;;;;;;8.48;2.00;;;24.30;93.10;;;;;;6243326;22;20371;-79
2022/10/02 13:39:34;;;;;;;5.50;1.65;;;24.10;93.30;;;;;;6201196;22;20342;-80
2022/10/02 13:42:24;;;;;;;7.95;2.20;;;23.70;93.60;;;;;;6244171;22;20065;-80
2022/10/02 13:45:17;;;;;;;10.02;2.00;;;23.60;93.70;;;;;;6267981;22;20020;-80
2022/10/02 13:48:18;;;;;;;9.18;2.00;;;23.60;94.30;;;;;;6241312;22;20027;-79
2022/10/02 13:51:05;;;;;;;7.30;1.75;;;23.70;94.00;;;;;;6236701;22;20059;-80
2022/10/02 13:53:43;;;;;;;6.68;1.90;;;23.80;94.30;;;;;;6267137;22;20091;-79
2022/10/02 13:56:34;;;;;;;7.72;2.22;;;23.90;94.50;;;;;;6266643;22;20070;-80
2022/10/02 13:59:13;;;;;;;5.95;1.75;;;23.80;93.90;;;;;;6242092;22;20015;-80
2022/10/02 14:01:48;;;;;;;6.15;1.80;;;23.80;94.30;;;;;;6240874;22;20047;-80
2022/10/02 14:04:26;;;;;;;;;;;23.90;93.90;;;;;;6267666;22;20023;-81
2022/10/02 14:07:26;;;;;;;9.85;2.25;;;23.80;93.60;;;;;;6267053;22;19919;-80
2022/10/02 14:10:13;;;;;;;8.35;2.08;;;23.80;94.20;;;;;;6266318;22;20016;-80
2022/10/02 14:12:39;;;;;;;7.15;1.50;;;23.40;94.10;;;;;;6266406;22;20015;-80
2022/10/02 14:15:23;;;;;;;8.63;2.13;;;23.20;94.60;;;;;;6241784;22;20094;-81
2022/10/02 14:18:28;;;;;;;7.25;2.13;;;23.00;94.80;;;;;;6266659;22;20034;-80